createdAt,value
2023-08-06T00:01:06.801Z,28.13
2023-08-06T00:03:36.006Z,29.23
2023-08-06T00:06:07.242Z,27.35
2023-08-06T00:08:36.216Z,25.85
2023-08-06T00:11:05.289Z,29.63
2023-08-06T00:13:34.261Z,26.73
2023-08-06T00:16:13.144Z,32.95
2023-08-06T00:18:42.954Z,30.02
2023-08-06T00:21:13.556Z,26.77
2023-08-06T00:23:43.284Z,32.58
2023-08-06T00:26:12.532Z,34.42
2023-08-06T00:28:41.587Z,26.30
2023-08-06T00:31:12.086Z,28.45
2023-08-06T00:33:41.095Z,24.83
2023-08-06T00:36:10.105Z,26.73
2023-08-06T00:38:39.167Z,30.17
2023-08-06T00:41:08.221Z,28.00
2023-08-06T00:43:37.326Z,26.98
2023-08-06T00:46:06.845Z,24.17
2023-08-06T00:48:37.756Z,23.27
2023-08-06T00:51:07.035Z,22.38
2023-08-06T00:53:36.148Z,25.85
2023-08-06T00:56:06.711Z,23.30
2023-08-06T00:58:37.473Z,23.65
2023-08-06T01:01:06.776Z,24.95
2023-08-06T01:03:37.234Z,23.58
2023-08-06T01:06:07.027Z,25.23
2023-08-06T01:08:51.289Z,24.13
2023-08-06T01:11:29.223Z,21.27
2023-08-06T01:14:09.895Z,22.90
2023-08-06T01:16:41.156Z,29.60
2023-08-06T01:19:20.276Z,29.63
2023-08-06T01:21:51.184Z,29.92
2023-08-06T01:24:20.454Z,30.58
2023-08-06T01:27:04.924Z,31.05
2023-08-06T01:29:38.354Z,27.52
2023-08-06T01:32:11.314Z,30.17
2023-08-06T01:34:43.018Z,27.95
2023-08-06T01:37:14.982Z,24.70
2023-08-06T01:39:45.736Z,26.38
2023-08-06T01:42:15.152Z,27.98
2023-08-06T01:44:44.214Z,26.27
2023-08-06T01:47:13.741Z,28.55
2023-08-06T01:49:42.774Z,24.90
2023-08-06T01:52:11.858Z,25.17
2023-08-06T01:54:42.259Z,22.08
2023-08-06T01:57:11.332Z,22.13
2023-08-06T01:59:40.358Z,26.83
2023-08-06T02:02:10.433Z,24.75
2023-08-06T02:04:42.403Z,28.63
2023-08-06T02:07:11.425Z,22.33
2023-08-06T02:09:41.761Z,20.42
2023-08-06T02:12:11.122Z,22.48
2023-08-06T02:14:40.155Z,20.75
2023-08-06T02:17:09.155Z,22.83
2023-08-06T02:19:38.138Z,19.88
2023-08-06T02:22:07.739Z,19.88
2023-08-06T02:24:36.772Z,24.80
2023-08-06T02:27:07.622Z,20.95
2023-08-06T02:29:36.635Z,20.13
2023-08-06T02:32:06.258Z,16.38
2023-08-06T02:34:35.964Z,20.63
2023-08-06T02:37:05.162Z,17.85
2023-08-06T02:39:34.888Z,20.42
2023-08-06T02:42:04.735Z,21.67
2023-08-06T02:44:35.993Z,21.55
2023-08-06T02:47:05.356Z,16.08
2023-08-06T02:49:34.437Z,19.92
2023-08-06T02:52:03.425Z,15.15
2023-08-06T02:54:32.502Z,19.15
2023-08-06T02:57:02.690Z,18.55
2023-08-06T02:59:35.860Z,16.65
2023-08-06T03:02:12.250Z,20.30
2023-08-06T03:05:05.929Z,18.02
2023-08-06T03:07:38.805Z,15.57
2023-08-06T03:10:22.823Z,17.50
2023-08-06T03:12:54.459Z,15.20
2023-08-06T03:15:25.804Z,13.05
2023-08-06T03:17:58.730Z,19.58
2023-08-06T03:20:28.713Z,14.30
2023-08-06T03:22:57.754Z,18.65
2023-08-06T03:25:26.777Z,16.02
2023-08-06T03:27:56.180Z,13.38
2023-08-06T03:30:26.900Z,15.30
2023-08-06T03:32:57.353Z,20.13
2023-08-06T03:35:27.250Z,15.90
2023-08-06T03:37:56.522Z,16.70
2023-08-06T03:40:25.643Z,14.88
2023-08-06T03:42:54.777Z,14.20
2023-08-06T03:45:23.821Z,12.57
2023-08-06T03:47:54.793Z,19.88
2023-08-06T03:50:24.203Z,12.80
2023-08-06T03:52:54.410Z,16.77
2023-08-06T03:55:24.460Z,17.63
2023-08-06T03:57:53.464Z,13.60
2023-08-06T04:00:22.778Z,13.35
2023-08-06T04:02:56.972Z,16.27
2023-08-06T04:05:26.245Z,13.98
2023-08-06T04:07:55.305Z,11.32
2023-08-06T04:10:24.451Z,15.82
2023-08-06T04:12:53.606Z,9.93
2023-08-06T04:15:22.656Z,13.07
2023-08-06T04:17:51.731Z,10.90
2023-08-06T04:20:22.432Z,13.70
2023-08-06T04:22:51.622Z,13.75
2023-08-06T04:25:22.308Z,9.30
2023-08-06T04:27:51.600Z,11.68
2023-08-06T04:30:20.892Z,8.35
2023-08-06T04:32:51.979Z,14.75
2023-08-06T04:35:22.560Z,11.88
2023-08-06T04:37:51.927Z,9.00
2023-08-06T04:40:20.992Z,10.52
2023-08-06T04:42:50.253Z,9.65
2023-08-06T04:45:20.570Z,15.60
2023-08-06T04:47:49.621Z,10.98
2023-08-06T04:50:18.918Z,11.07
2023-08-06T04:52:49.428Z,9.98
2023-08-06T04:55:18.889Z,13.80
2023-08-06T04:57:48.681Z,7.43
2023-08-06T05:00:17.795Z,10.57
2023-08-06T05:02:46.873Z,9.52
2023-08-06T05:05:16.071Z,9.73
2023-08-06T05:07:45.381Z,17.25
2023-08-06T05:10:15.851Z,10.10
2023-08-06T05:12:45.024Z,8.35
2023-08-06T05:15:14.108Z,8.07
2023-08-06T05:17:43.245Z,10.35
2023-08-06T05:20:13.882Z,8.32
2023-08-06T05:22:42.960Z,7.68
2023-08-06T05:25:12.127Z,7.28
2023-08-06T05:27:42.613Z,8.48
2023-08-06T05:30:12.821Z,8.68
2023-08-06T05:32:41.862Z,8.68
2023-08-06T05:35:11.184Z,10.07
2023-08-06T05:37:40.195Z,9.73
2023-08-06T05:40:10.417Z,12.30
2023-08-06T05:42:39.485Z,10.98
2023-08-06T05:45:11.497Z,7.25
2023-08-06T05:47:40.557Z,12.05
2023-08-06T05:50:11.317Z,8.10
2023-08-06T05:52:40.464Z,8.05
2023-08-06T05:55:10.324Z,8.63
2023-08-06T05:57:39.321Z,6.32
2023-08-06T06:00:11.212Z,8.48
2023-08-06T06:05:11.690Z,8.25
2023-08-06T06:07:40.975Z,10.10
2023-08-06T06:10:10.955Z,6.45
2023-08-06T06:12:41.427Z,9.15
2023-08-06T06:15:12.579Z,8.43
2023-08-06T06:17:41.820Z,7.45
2023-08-06T06:20:11.404Z,9.05
2023-08-06T06:22:40.449Z,7.93
2023-08-06T06:25:10.976Z,14.57
2023-08-06T06:27:40.027Z,9.43
2023-08-06T06:30:13.269Z,12.57
2023-08-06T06:32:42.413Z,9.63
2023-08-06T06:35:12.573Z,9.82
2023-08-06T06:37:41.837Z,6.65
2023-08-06T06:40:11.608Z,9.27
2023-08-06T06:42:40.732Z,5.25
2023-08-06T06:45:13.358Z,9.38
2023-08-06T06:47:42.465Z,8.85
2023-08-06T06:50:12.126Z,6.75
2023-08-06T06:52:41.225Z,11.18
2023-08-06T06:55:10.879Z,8.35
2023-08-06T06:57:40.315Z,6.25
2023-08-06T07:00:10.490Z,5.57
2023-08-06T07:02:41.060Z,7.82
2023-08-06T07:05:10.828Z,6.45
2023-08-06T07:07:40.062Z,9.68
2023-08-06T07:10:09.962Z,7.45
2023-08-06T07:12:39.239Z,7.68
2023-08-06T07:15:15.678Z,7.18
2023-08-06T07:17:46.325Z,8.45
2023-08-06T07:20:15.503Z,8.95
2023-08-06T07:22:45.148Z,9.07
2023-08-06T07:25:14.452Z,4.88
2023-08-06T07:27:43.847Z,3.50
2023-08-06T07:30:13.645Z,8.98
2023-08-06T07:32:42.658Z,4.55
2023-08-06T07:35:15.789Z,5.47
2023-08-06T07:37:44.858Z,8.80
2023-08-06T07:40:15.032Z,5.13
2023-08-06T07:42:44.011Z,7.13
2023-08-06T07:45:13.300Z,4.50
2023-08-06T07:47:42.746Z,6.63
2023-08-06T07:50:13.340Z,6.13
2023-08-06T07:52:42.417Z,4.90
2023-08-06T07:55:11.651Z,5.97
2023-08-06T07:57:40.712Z,7.43
2023-08-06T08:00:10.821Z,8.65
2023-08-06T08:02:42.641Z,12.13
2023-08-06T08:05:13.130Z,6.40
2023-08-06T08:07:42.296Z,5.20
2023-08-06T08:10:11.547Z,7.88
2023-08-06T08:12:40.588Z,6.65
2023-08-06T08:15:10.228Z,9.95
2023-08-06T08:17:39.234Z,6.20
2023-08-06T08:20:09.276Z,12.90
2023-08-06T08:22:40.008Z,4.30
2023-08-06T08:25:09.296Z,4.28
2023-08-06T08:27:38.359Z,5.55
2023-08-06T08:30:08.798Z,7.50
2023-08-06T08:32:37.815Z,10.23
2023-08-06T08:35:07.292Z,7.68
2023-08-06T08:37:37.493Z,5.05
2023-08-06T08:40:17.524Z,6.25
2023-08-06T08:42:46.505Z,6.03
2023-08-06T08:45:16.561Z,8.13
2023-08-06T08:47:47.486Z,9.05
2023-08-06T08:50:16.647Z,9.02
2023-08-06T08:52:47.754Z,6.82
2023-08-06T08:55:18.849Z,4.38
2023-08-06T08:57:48.557Z,9.65
2023-08-06T09:00:18.987Z,7.25
2023-08-06T09:02:48.943Z,8.35
2023-08-06T09:05:19.163Z,7.28
2023-08-06T09:07:51.408Z,5.22
2023-08-06T09:10:24.750Z,5.60
2023-08-06T09:12:55.583Z,4.53
2023-08-06T09:15:26.913Z,5.82
2023-08-06T09:17:56.556Z,7.13
2023-08-06T09:20:26.014Z,5.25
2023-08-06T09:22:55.757Z,5.97
2023-08-06T09:25:28.084Z,3.42
2023-08-06T09:27:57.215Z,5.10
2023-08-06T09:30:33.563Z,5.65
2023-08-06T09:33:02.965Z,8.30
2023-08-06T09:35:33.691Z,7.18
2023-08-06T09:38:11.757Z,8.95
2023-08-06T09:40:42.898Z,8.68
2023-08-06T09:43:14.320Z,7.13
2023-08-06T09:45:45.058Z,6.85
2023-08-06T09:48:14.248Z,5.50
2023-08-06T09:50:43.594Z,7.57
2023-08-06T09:53:12.680Z,9.13
2023-08-06T09:55:43.316Z,7.53
2023-08-06T09:58:12.499Z,7.18
2023-08-06T10:00:41.644Z,9.98
2023-08-06T10:03:15.253Z,6.75
2023-08-06T10:05:48.153Z,7.50
2023-08-06T10:08:18.473Z,5.70
2023-08-06T10:10:49.086Z,6.57
2023-08-06T10:13:21.036Z,5.22
2023-08-06T10:15:51.162Z,6.20
2023-08-06T10:18:22.589Z,7.32
2023-08-06T10:20:51.821Z,7.30
2023-08-06T10:23:22.319Z,7.93
2023-08-06T10:25:57.956Z,4.55
2023-08-06T10:28:36.972Z,9.07
2023-08-06T10:31:07.014Z,5.05
2023-08-06T10:33:53.687Z,10.05
2023-08-06T10:36:22.744Z,5.80
2023-08-06T10:38:52.845Z,6.93
2023-08-06T10:41:30.966Z,5.68
2023-08-06T10:44:09.674Z,9.63
2023-08-06T10:46:39.469Z,7.82
2023-08-06T10:49:08.808Z,7.38
2023-08-06T10:51:39.103Z,5.35
2023-08-06T10:54:08.433Z,4.55
2023-08-06T10:56:43.002Z,6.50
2023-08-06T10:59:12.612Z,7.50
2023-08-06T11:01:41.955Z,5.95
2023-08-06T11:04:17.064Z,5.45
2023-08-06T11:06:46.094Z,7.30
2023-08-06T11:09:15.199Z,6.85
2023-08-06T11:11:46.220Z,5.55
2023-08-06T11:14:18.022Z,6.75
2023-08-06T11:16:47.167Z,7.35
2023-08-06T11:19:17.462Z,6.63
2023-08-06T11:21:48.854Z,8.93
2023-08-06T11:24:17.986Z,5.10
2023-08-06T11:26:48.460Z,7.13
2023-08-06T11:29:18.229Z,5.50
2023-08-06T11:31:47.256Z,5.85
2023-08-06T11:34:16.341Z,4.10
2023-08-06T11:36:46.884Z,7.90
2023-08-06T11:39:15.978Z,7.03
2023-08-06T11:41:46.191Z,6.07
2023-08-06T11:44:17.959Z,8.20
2023-08-06T11:46:54.573Z,6.75
2023-08-06T11:49:39.353Z,7.78
2023-08-06T11:54:45.293Z,11.07
2023-08-06T11:57:16.079Z,10.30
2023-08-06T11:59:48.447Z,7.68
2023-08-06T12:02:18.549Z,6.85
2023-08-06T12:05:07.457Z,4.40
2023-08-06T12:07:40.713Z,5.22
2023-08-06T12:10:10.709Z,6.00
2023-08-06T12:12:39.914Z,8.57
2023-08-06T12:15:11.961Z,5.90
2023-08-06T12:17:41.891Z,6.32
2023-08-06T12:20:12.057Z,6.72
2023-08-06T12:22:41.726Z,6.60
2023-08-06T12:25:13.067Z,7.07
2023-08-06T12:27:44.117Z,8.18
2023-08-06T12:30:15.329Z,7.22
2023-08-06T12:32:44.525Z,9.93
2023-08-06T12:35:15.354Z,7.68
2023-08-06T12:37:45.336Z,14.32
2023-08-06T12:42:46.626Z,5.50
2023-08-06T12:45:17.087Z,7.93
2023-08-06T12:47:46.910Z,5.13
2023-08-06T12:50:16.246Z,8.95
2023-08-06T12:52:45.275Z,5.63
2023-08-06T12:55:14.399Z,10.30
2023-08-06T12:57:57.496Z,8.50
2023-08-06T13:00:29.629Z,5.38
2023-08-06T13:02:58.823Z,4.68
2023-08-06T13:05:27.896Z,7.03
2023-08-06T13:07:56.890Z,6.45
2023-08-06T13:10:27.094Z,7.93
2023-08-06T13:12:56.136Z,6.32
2023-08-06T13:15:25.179Z,8.07
2023-08-06T13:17:55.690Z,4.88
2023-08-06T13:20:25.096Z,7.47
2023-08-06T13:22:55.069Z,6.30
2023-08-06T13:25:24.304Z,5.65
2023-08-06T13:27:53.320Z,5.28
2023-08-06T13:30:24.346Z,9.15
2023-08-06T13:32:53.450Z,7.75
2023-08-06T13:35:24.403Z,7.60
2023-08-06T13:37:53.647Z,4.15
2023-08-06T13:40:23.036Z,6.82
2023-08-06T13:42:52.159Z,6.30
2023-08-06T13:45:21.476Z,6.57
2023-08-06T13:47:50.561Z,5.70
2023-08-06T13:50:20.344Z,6.60
2023-08-06T13:52:50.942Z,6.28
2023-08-06T13:55:19.921Z,7.07
2023-08-06T13:57:49.137Z,5.50
2023-08-06T14:00:18.145Z,7.72
2023-08-06T14:02:47.267Z,6.60
2023-08-06T14:05:16.391Z,5.43
2023-08-06T14:07:45.528Z,6.60
2023-08-06T14:10:16.085Z,10.68
2023-08-06T14:12:51.999Z,6.47
2023-08-06T14:15:27.191Z,4.32
2023-08-06T14:17:56.440Z,5.95
2023-08-06T14:20:25.612Z,8.70
2023-08-06T14:22:54.971Z,7.65
2023-08-06T14:25:25.580Z,7.53
2023-08-06T14:27:54.642Z,6.07
2023-08-06T14:30:23.723Z,9.60
2023-08-06T14:32:52.830Z,5.07
2023-08-06T14:35:21.838Z,5.40
2023-08-06T14:37:51.086Z,6.68
2023-08-06T14:40:20.325Z,4.78
2023-08-06T14:42:50.808Z,7.55
2023-08-06T14:45:19.832Z,8.68
2023-08-06T14:47:48.929Z,5.45
2023-08-06T14:50:18.483Z,5.60
2023-08-06T14:52:47.654Z,7.13
2023-08-06T14:55:25.160Z,7.97
2023-08-06T14:57:56.232Z,7.72
2023-08-06T15:00:25.616Z,6.50
2023-08-06T15:02:54.693Z,6.45
2023-08-06T15:05:23.835Z,5.32
2023-08-06T15:07:54.227Z,6.43
2023-08-06T15:10:27.918Z,4.70
2023-08-06T15:12:58.675Z,5.45
2023-08-06T15:15:29.318Z,5.53
2023-08-06T15:17:58.742Z,6.38
2023-08-06T15:20:27.981Z,7.55
2023-08-06T15:22:59.424Z,7.45
2023-08-06T15:25:28.901Z,11.32
2023-08-06T15:27:59.353Z,6.75
2023-08-06T15:30:28.454Z,8.63
2023-08-06T15:32:57.679Z,6.55
2023-08-06T15:35:26.734Z,8.77
2023-08-06T15:37:55.803Z,9.23
2023-08-06T15:40:24.952Z,5.78
2023-08-06T15:42:53.988Z,5.43
2023-08-06T15:45:24.460Z,6.35
2023-08-06T15:47:53.612Z,7.82
2023-08-06T15:50:22.855Z,10.40
2023-08-06T15:52:51.943Z,5.47
2023-08-06T15:55:21.332Z,8.13
2023-08-06T15:57:50.462Z,6.65
2023-08-06T16:00:19.638Z,8.55
2023-08-06T16:02:50.180Z,9.40
2023-08-06T16:05:20.122Z,8.27
2023-08-06T16:07:52.110Z,4.95
2023-08-06T16:10:21.423Z,8.73
2023-08-06T16:12:50.453Z,10.05
2023-08-06T16:15:20.977Z,9.57
2023-08-06T16:17:51.836Z,12.50
2023-08-06T16:20:20.955Z,6.28
2023-08-06T16:22:50.773Z,7.90
2023-08-06T16:25:20.112Z,6.68
2023-08-06T16:27:49.893Z,8.68
2023-08-06T16:30:19.190Z,5.78
2023-08-06T16:32:48.305Z,6.55
2023-08-06T16:35:19.013Z,10.60
2023-08-06T16:37:49.464Z,7.68
2023-08-06T16:40:18.943Z,7.80
2023-08-06T16:42:48.602Z,9.02
2023-08-06T16:45:17.830Z,22.80
2023-08-06T16:47:47.075Z,13.85
2023-08-06T16:50:16.754Z,16.75
2023-08-06T16:52:47.192Z,20.95
2023-08-06T16:55:16.732Z,20.48
2023-08-06T16:57:45.760Z,9.30
2023-08-06T17:00:15.139Z,13.02
2023-08-06T17:02:44.524Z,10.98
2023-08-06T17:05:13.637Z,9.90
2023-08-06T17:07:45.024Z,21.27
2023-08-06T17:10:15.635Z,15.57
2023-08-06T17:12:45.919Z,10.13
2023-08-06T17:15:15.025Z,9.95
2023-08-06T17:17:44.079Z,14.82
2023-08-06T17:20:14.149Z,18.35
2023-08-06T17:22:43.246Z,15.25
2023-08-06T17:25:12.445Z,13.23
2023-08-06T17:27:42.906Z,15.55
2023-08-06T17:30:12.832Z,12.50
2023-08-06T17:32:42.129Z,14.00
2023-08-06T17:35:11.430Z,11.30
2023-08-06T17:37:40.619Z,15.07
2023-08-06T17:40:11.101Z,15.18
2023-08-06T17:42:40.266Z,12.52
2023-08-06T17:45:11.639Z,19.60
2023-08-06T17:47:42.178Z,10.25
2023-08-06T17:50:11.976Z,10.77
2023-08-06T17:52:41.005Z,9.82
2023-08-06T17:55:10.797Z,10.52
2023-08-06T17:57:39.770Z,12.98
2023-08-06T18:01:16.470Z,13.85
2023-08-06T18:03:51.295Z,13.07
2023-08-06T18:08:49.029Z,15.38
2023-08-06T18:11:19.137Z,18.35
2023-08-06T18:13:48.263Z,17.10
2023-08-06T18:16:17.458Z,17.08
2023-08-06T18:18:48.095Z,12.55
2023-08-06T18:21:18.554Z,16.55
2023-08-06T18:23:47.499Z,13.90
2023-08-06T18:26:16.600Z,14.27
2023-08-06T18:28:46.181Z,17.23
2023-08-06T18:31:15.283Z,15.88
2023-08-06T18:33:44.320Z,16.42
2023-08-06T18:36:14.878Z,14.77
2023-08-06T18:38:44.576Z,16.77
2023-08-06T18:41:13.696Z,16.23
2023-08-06T18:43:42.707Z,12.48
2023-08-06T18:46:11.888Z,11.25
2023-08-06T18:48:40.963Z,13.30
2023-08-06T18:51:14.421Z,13.30
2023-08-06T18:53:43.446Z,11.80
2023-08-06T18:56:12.457Z,13.23
2023-08-06T18:58:41.750Z,15.95
2023-08-06T19:01:11.186Z,13.38
2023-08-06T19:03:40.329Z,13.73
2023-08-06T19:06:09.451Z,14.30
2023-08-06T19:08:41.010Z,13.55
2023-08-06T19:11:09.979Z,10.88
2023-08-06T19:13:39.038Z,14.60
2023-08-06T19:16:08.084Z,14.13
2023-08-06T19:18:38.207Z,12.32
2023-08-06T19:21:07.455Z,13.95
2023-08-06T19:23:36.504Z,13.93
2023-08-06T19:26:07.191Z,13.50
2023-08-06T19:28:36.513Z,11.50
2023-08-06T19:31:05.617Z,13.35
2023-08-06T19:33:34.749Z,18.20
2023-08-06T19:36:04.202Z,16.42
2023-08-06T19:38:33.903Z,17.30
2023-08-06T19:41:11.111Z,14.32
2023-08-06T19:43:40.652Z,12.63
2023-08-06T19:46:09.786Z,12.80
2023-08-06T19:48:39.794Z,12.65
2023-08-06T19:51:08.952Z,13.18
2023-08-06T19:53:40.415Z,11.93
2023-08-06T19:56:10.822Z,10.48
2023-08-06T19:58:39.942Z,10.45
2023-08-06T20:01:10.698Z,10.65
2023-08-06T20:03:44.546Z,14.05
2023-08-06T20:06:14.395Z,13.93
2023-08-06T20:08:43.405Z,11.73
2023-08-06T20:11:13.868Z,14.10
2023-08-06T20:13:43.014Z,12.27
2023-08-06T20:16:13.268Z,11.43
2023-08-06T20:18:42.890Z,10.80
2023-08-06T20:21:12.209Z,11.52
2023-08-06T20:23:41.324Z,10.15
2023-08-06T20:26:10.698Z,12.32
2023-08-06T20:28:42.111Z,10.93
2023-08-06T20:31:11.473Z,11.50
2023-08-06T20:33:40.704Z,10.70
2023-08-06T20:36:09.961Z,13.18
2023-08-06T20:38:39.278Z,12.43
2023-08-06T20:41:08.914Z,10.20
2023-08-06T20:43:42.253Z,11.02
2023-08-06T20:46:14.975Z,12.52
2023-08-06T20:48:50.734Z,9.00
2023-08-06T20:51:58.789Z,12.20
2023-08-06T20:54:58.920Z,8.88
2023-08-06T20:57:30.145Z,7.22
2023-08-06T21:00:01.754Z,8.75
2023-08-06T21:02:34.963Z,11.05
2023-08-06T21:05:04.227Z,7.80
2023-08-06T21:07:37.408Z,12.82
2023-08-06T21:10:07.067Z,8.43
2023-08-06T21:12:36.049Z,9.15
2023-08-06T21:15:05.344Z,8.00
2023-08-06T21:17:59.152Z,7.10
2023-08-06T21:20:30.249Z,9.35
2023-08-06T21:22:59.327Z,8.55
2023-08-06T21:25:28.376Z,9.70
2023-08-06T21:27:57.521Z,8.02
2023-08-06T21:30:26.569Z,9.27
2023-08-06T21:32:58.769Z,7.63
2023-08-06T21:35:29.589Z,7.15
2023-08-06T21:37:58.944Z,12.25
2023-08-06T21:40:28.027Z,10.23
2023-08-06T21:42:57.113Z,8.98
2023-08-06T21:45:26.139Z,6.13
2023-08-06T21:47:56.633Z,11.77
2023-08-06T21:50:25.797Z,8.75
2023-08-06T21:52:54.704Z,9.38
2023-08-06T21:55:23.711Z,6.28
2023-08-06T21:57:52.819Z,7.45
2023-08-06T22:00:22.033Z,6.13
2023-08-06T22:02:51.061Z,7.47
2023-08-06T22:05:21.725Z,6.85
2023-08-06T22:07:50.737Z,9.13
2023-08-06T22:10:19.726Z,6.32
2023-08-06T22:12:48.625Z,9.98
2023-08-06T22:15:17.631Z,9.00
2023-08-06T22:17:46.783Z,10.02
2023-08-06T22:20:17.153Z,7.85
2023-08-06T22:22:47.638Z,8.55
2023-08-06T22:25:16.753Z,8.23
2023-08-06T22:27:45.738Z,7.90
2023-08-06T22:30:16.043Z,7.38
2023-08-06T22:32:45.158Z,12.32
2023-08-06T22:35:16.342Z,11.27
2023-08-06T22:37:45.499Z,8.95
2023-08-06T22:40:16.384Z,7.60
2023-08-06T22:42:45.605Z,8.63
2023-08-06T22:45:15.968Z,11.40
2023-08-06T22:47:45.257Z,8.93
2023-08-06T22:50:14.354Z,6.63
2023-08-06T22:52:44.606Z,8.32
2023-08-06T22:55:26.943Z,7.35
2023-08-06T22:58:03.919Z,10.93
2023-08-06T23:00:33.146Z,14.40
2023-08-06T23:03:09.889Z,9.18
2023-08-06T23:05:40.413Z,9.90
2023-08-06T23:08:09.545Z,8.98
2023-08-06T23:10:39.291Z,7.45
2023-08-06T23:13:09.736Z,9.30
2023-08-06T23:15:38.933Z,11.07
2023-08-06T23:18:08.232Z,10.20
2023-08-06T23:20:38.113Z,8.95
2023-08-06T23:23:07.219Z,12.63
2023-08-06T23:25:37.212Z,11.90
2023-08-06T23:28:06.622Z,8.63
2023-08-06T23:30:37.211Z,8.65
2023-08-06T23:33:06.312Z,10.88
2023-08-06T23:35:35.318Z,11.80
2023-08-06T23:38:07.386Z,7.75
2023-08-06T23:40:36.626Z,10.35
2023-08-06T23:43:05.993Z,7.07
2023-08-06T23:45:36.404Z,10.15
2023-08-06T23:48:05.804Z,7.70
2023-08-06T23:50:35.113Z,7.95
2023-08-06T23:53:04.087Z,7.80
2023-08-06T23:55:33.550Z,8.50
2023-08-06T23:58:02.743Z,8.95
